Time;durP1;ratioP1;P1;durP2;ratioP2;P2;SDS_P1;SDS_P2;PMS_P1;PMS_P2;Temp;Humidity;BMP_temperature;BMP_pressure;BME280_temperature;BME280_humidity;BME280_pressure;Samples;Min_cycle;Max_cycle;Signal;HPM_P1;HPM_P2
2024/04/12 00:01:35;;;;;;;26.60;12.60;;;;;;;9.97;60.39;100372.97;135946;1276;22667;-73
2024/04/12 00:04:37;;;;;;;;;;;;;;;10.13;60.21;100375.92;135923;1276;22495;-75
2024/04/12 00:07:40;;;;;;;29.40;13.10;;;;;;;10.18;59.99;100378.55;135919;1276;22634;-70
2024/04/12 00:10:42;;;;;;;29.60;14.00;;;;;;;10.17;59.48;100380.52;135927;1276;22569;-69
2024/04/12 00:13:45;;;;;;;34.40;15.00;;;;;;;10.09;59.78;100380.63;135926;1276;25464;-71
2024/04/12 00:16:52;;;;;;;31.60;13.70;;;;;;;10.09;59.92;100381.85;135929;1276;22768;-72
2024/04/12 00:19:54;;;;;;;29.50;13.00;;;;;;;10.04;59.90;100379.02;135957;1276;22532;-72
2024/04/12 00:22:56;;;;;;;27.70;11.00;;;;;;;10.04;60.10;100379.02;135956;1276;22528;-71
2024/04/12 00:26:00;;;;;;;31.90;13.10;;;;;;;10.09;59.69;100379.38;135929;1276;22571;-71
2024/04/12 00:29:07;;;;;;;34.80;13.80;;;;;;;10.09;59.77;100377.29;135907;1276;22568;-68
2024/04/12 00:32:16;;;;;;;30.40;12.30;;;;;;;10.06;59.94;100382.09;135956;1276;23003;-68
2024/04/12 00:35:19;;;;;;;30.10;12.30;;;;;;;10.13;59.74;100382.06;135956;1276;22545;-75
2024/04/12 00:38:23;;;;;;;28.60;12.60;;;;;;;10.15;59.49;100380.75;135820;1276;22557;-64
2024/04/12 00:41:25;;;;;;;30.80;12.60;;;;;;;10.12;59.47;100377.19;135937;1276;25321;-72
2024/04/12 00:44:29;;;;;;;29.80;12.40;;;;;;;10.14;59.15;100373.63;135912;1276;22545;-76
2024/04/12 00:47:32;;;;;;;27.90;11.30;;;;;;;10.16;59.35;100374.24;135954;1276;22541;-70
2024/04/12 00:50:36;;;;;;;27.40;11.30;;;;;;;10.16;59.49;100377.05;135915;1276;22567;-73
2024/04/12 00:53:40;;;;;;;31.40;14.10;;;;;;;10.13;59.83;100378.36;135918;1276;22562;-74
2024/04/12 00:56:42;;;;;;;30.30;12.50;;;;;;;10.10;59.64;100372.03;135908;1276;22556;-73
2024/04/12 00:59:45;;;;;;;28.00;11.80;;;;;;;10.06;59.96;100372.51;135895;1276;22522;-72
2024/04/12 01:02:48;;;;;;;29.90;12.50;;;;;;;10.02;59.68;100374.39;135983;1276;22534;-74
2024/04/12 01:05:51;;;;;;;29.80;12.00;;;;;;;10.00;59.76;100370.77;135938;1276;22564;-70
2024/04/12 01:08:54;;;;;;;30.50;12.60;;;;;;;9.97;59.80;100371.05;135834;1276;22525;-72
2024/04/12 01:11:59;;;;;;;27.70;11.70;;;;;;;9.98;60.04;100369.45;135941;1276;22528;-71
2024/04/12 01:15:02;;;;;;;30.10;11.30;;;;;;;9.95;60.11;100369.56;135979;1276;22524;-72
2024/04/12 01:18:05;;;;;;;30.00;10.90;;;;;;;9.94;60.26;100366.27;135913;1276;26039;-72
2024/04/12 01:21:11;;;;;;;29.50;11.20;;;;;;;9.95;60.46;100365.54;135905;1276;22561;-73
2024/04/12 01:24:16;;;;;;;29.60;12.50;;;;;;;10.03;60.47;100365.24;135739;1276;22568;-71
2024/04/12 01:27:18;;;;;;;27.80;13.20;;;;;;;10.05;60.41;100367.98;135767;1276;22538;-73
2024/04/12 01:30:21;;;;;;;30.60;12.90;;;;;;;10.14;60.55;100363.33;135964;1276;22528;-67
2024/04/12 01:33:24;;;;;;;29.80;12.00;;;;;;;10.14;60.45;100357.88;135940;1276;22539;-73
2024/04/12 01:36:27;;;;;;;28.60;11.80;;;;;;;10.19;60.44;100352.47;135910;1276;22524;-74
2024/04/12 01:39:30;;;;;;;30.00;11.40;;;;;;;10.25;60.54;100350.69;135911;1276;22676;-67
2024/04/12 01:42:37;;;;;;;28.40;10.10;;;;;;;10.30;60.52;100352.98;135921;1276;22524;-70
2024/04/12 01:45:39;;;;;;;27.40;11.20;;;;;;;10.39;60.40;100354.59;135928;1264;24212;-73
2024/04/12 01:48:43;;;;;;;29.90;14.10;;;;;;;10.34;60.58;100357.58;135964;1276;25250;-64
2024/04/12 01:51:47;;;;;;;29.90;12.80;;;;;;;10.24;60.79;100351.77;135913;1276;22556;-63
2024/04/12 01:55:05;;;;;;;30.00;11.20;;;;;;;10.29;60.65;100350.56;135916;1276;22531;-73
2024/04/12 01:58:08;;;;;;;29.10;11.90;;;;;;;10.31;60.44;100349.42;135920;1276;22529;-72
2024/04/12 02:01:12;;;;;;;;;;;;;;;10.37;60.16;100355.89;135957;1276;22502;-74
2024/04/12 02:04:18;;;;;;;28.30;12.70;;;;;;;10.37;60.11;100352.73;135824;1276;25389;-71
2024/04/12 02:07:26;;;;;;;24.10;10.20;;;;;;;10.41;60.02;100354.38;135899;1276;22540;-70
2024/04/12 02:10:29;;;;;;;28.80;10.10;;;;;;;10.49;59.88;100353.20;135945;1276;22541;-76
2024/04/12 02:13:35;;;;;;;26.50;10.60;;;;;;;10.34;60.64;100354.25;135953;1276;22520;-64
2024/04/12 02:16:39;;;;;;;27.70;11.20;;;;;;;10.38;60.35;100351.30;135925;1276;22528;-74
2024/04/12 02:19:41;;;;;;;28.60;11.70;;;;;;;10.49;60.42;100347.77;135935;1276;22536;-69
2024/04/12 02:22:45;;;;;;;36.50;14.80;;;;;;;10.47;60.68;100349.93;135922;1276;22522;-70
2024/04/12 02:25:49;;;;;;;48.80;20.90;;;;;;;10.50;60.89;100349.83;135917;1276;22532;-73
2024/04/12 02:28:52;;;;;;;63.30;25.80;;;;;;;10.56;60.99;100353.98;135941;1275;22562;-72
2024/04/12 02:31:55;;;;;;;29.40;10.70;;;;;;;10.59;61.04;100355.83;135917;1276;22569;-71
2024/04/12 02:34:57;;;;;;;27.40;10.70;;;;;;;10.62;61.32;100364.08;135895;1276;24079;-70
2024/04/12 02:38:00;;;;;;;26.70;11.20;;;;;;;10.61;60.83;100361.84;135947;1276;22532;-67
2024/04/12 02:41:02;;;;;;;26.20;11.50;;;;;;;10.60;61.01;100362.40;135959;1276;22528;-72
2024/04/12 02:44:06;;;;;;;29.80;11.00;;;;;;;10.57;61.34;100356.41;135670;1276;23221;-70
2024/04/12 02:47:08;;;;;;;28.80;12.60;;;;;;;10.68;60.42;100352.50;135950;1276;22528;-72
2024/04/12 02:50:11;;;;;;;28.60;12.30;;;;;;;10.65;60.47;100353.33;135917;1275;22940;-68
2024/04/12 02:53:18;;;;;;;27.40;11.00;;;;;;;10.63;60.84;100350.92;135935;1254;24416;-71
2024/04/12 02:56:24;;;;;;;29.20;11.50;;;;;;;10.71;60.75;100355.89;135870;1276;24447;-71
2024/04/12 02:59:27;;;;;;;28.60;12.10;;;;;;;10.60;61.04;100360.15;135949;1276;22524;-64
2024/04/12 03:02:29;;;;;;;26.20;10.80;;;;;;;10.52;61.87;100364.81;135957;1276;22535;-67
2024/04/12 03:05:32;;;;;;;28.30;11.20;;;;;;;10.52;62.01;100370.06;135919;1276;22545;-64
2024/04/12 03:08:36;;;;;;;26.90;12.00;;;;;;;10.61;62.13;100365.35;135951;1276;23276;-63
2024/04/12 03:11:38;;;;;;;32.60;13.00;;;;;;;10.78;62.02;100368.23;135901;1276;25570;-65
2024/04/12 03:14:41;;;;;;;29.40;13.40;;;;;;;10.83;62.58;100368.91;135964;1276;22534;-65
2024/04/12 03:17:44;;;;;;;26.20;11.80;;;;;;;10.89;62.51;100367.79;135909;1259;22532;-63
2024/04/12 03:20:47;;;;;;;;;;;;;;;10.95;62.64;100371.78;135945;1276;22522;-70
2024/04/12 03:23:49;;;;;;;30.30;11.00;;;;;;;11.02;62.76;100373.80;135906;1276;22627;-70
2024/04/12 03:26:54;;;;;;;;;;;;;;;11.07;62.97;100378.86;135961;1276;22530;-69
2024/04/12 03:29:58;;;;;;;29.30;11.70;;;;;;;11.28;62.24;100379.48;135923;1276;22531;-70
2024/04/12 03:33:02;;;;;;;29.50;11.80;;;;;;;11.30;62.19;100377.27;135918;1276;22637;-64
2024/04/12 03:36:25;;;;;;;28.10;11.90;;;;;;;11.31;62.50;100375.30;135852;1267;25436;-63
2024/04/12 03:39:34;;;;;;;32.40;12.20;;;;;;;11.42;62.29;100376.80;135957;1276;24384;-73
2024/04/12 03:42:41;;;;;;;29.00;11.40;;;;;;;11.50;61.92;100375.45;135926;1260;22564;-70
2024/04/12 03:45:43;;;;;;;31.90;10.70;;;;;;;11.56;62.01;100371.35;135925;1276;22556;-63
2024/04/12 03:48:45;;;;;;;27.60;10.60;;;;;;;11.74;61.24;100369.02;135916;1276;25294;-72
2024/04/12 03:51:47;;;;;;;35.90;10.70;;;;;;;11.65;62.00;100366.98;135930;1276;22524;-72
2024/04/12 03:54:53;;;;;;;26.90;10.90;;;;;;;11.82;62.00;100368.35;131547;1276;5867189;-74
2024/04/12 03:57:55;;;;;;;32.80;12.20;;;;;;;11.90;61.59;100368.38;135912;1276;22531;-70
2024/04/12 04:00:57;;;;;;;34.60;12.40;;;;;;;11.81;61.66;100373.67;135941;1276;22539;-74
2024/04/12 04:04:00;;;;;;;28.80;12.80;;;;;;;11.79;61.36;100374.28;135945;1276;22678;-73
2024/04/12 04:07:03;;;;;;;34.40;12.50;;;;;;;11.89;61.14;100379.33;135935;1276;22533;-63
2024/04/12 04:10:10;;;;;;;30.00;11.00;;;;;;;11.76;61.59;100375.95;135903;1276;22528;-69
2024/04/12 04:13:12;;;;;;;27.90;10.10;;;;;;;11.70;61.88;100380.93;135903;1276;22530;-70
2024/04/12 04:16:16;;;;;;;29.10;11.00;;;;;;;11.58;62.66;100386.86;135840;1276;22525;-70
2024/04/12 04:19:18;;;;;;;26.60;11.60;;;;;;;11.60;62.24;100388.38;135933;1276;22524;-72
2024/04/12 04:22:39;;;;;;;30.80;11.40;;;;;;;11.51;62.67;100384.52;135918;1276;22567;-72
2024/04/12 04:25:44;;;;;;;28.00;11.10;;;;;;;11.68;62.58;100388.38;135881;1276;22567;-71
2024/04/12 04:28:46;;;;;;;29.60;12.40;;;;;;;11.82;62.72;100387.83;135804;1276;23310;-71
2024/04/12 04:31:49;;;;;;;28.40;12.50;;;;;;;12.01;62.40;100393.02;135962;1276;25275;-73
2024/04/12 04:34:54;;;;;;;30.00;11.60;;;;;;;12.03;63.01;100392.58;135910;1257;22637;-71
2024/04/12 04:37:56;;;;;;;25.50;10.90;;;;;;;12.16;62.94;100401.17;135974;1276;22535;-72
2024/04/12 04:40:59;;;;;;;;;;;;;;;12.16;63.57;100394.48;135980;1276;22532;-65
2024/04/12 04:44:01;;;;;;;32.30;14.10;;;;;;;12.34;63.74;100392.67;135903;1276;22554;-72
2024/04/12 04:47:04;;;;;;;29.30;12.50;;;;;;;12.46;63.46;100397.08;135867;1276;22599;-63
2024/04/12 04:50:08;;;;;;;29.50;13.00;;;;;;;12.65;63.04;100391.00;135940;1276;23134;-71
2024/04/12 04:53:11;;;;;;;32.20;13.50;;;;;;;12.77;63.18;100387.59;135966;1276;22547;-72
2024/04/12 04:56:24;;;;;;;29.70;14.40;;;;;;;13.08;62.82;100392.02;135914;1260;22529;-68
2024/04/12 04:59:32;;;;;;;30.30;14.10;;;;;;;13.37;62.20;100397.88;135949;1276;22669;-63
2024/04/12 05:02:35;;;;;;;31.10;14.20;;;;;;;13.76;61.08;100403.39;135952;1276;22522;-62
2024/04/12 05:05:39;;;;;;;30.40;14.00;;;;;;;13.83;61.27;100405.14;135944;1276;22525;-63
2024/04/12 05:08:43;;;;;;;31.20;13.30;;;;;;;13.83;61.96;100404.63;135919;1276;22560;-68
2024/04/12 05:11:45;;;;;;;29.80;12.40;;;;;;;13.97;62.23;100402.03;135921;1276;22571;-64
2024/04/12 05:14:54;;;;;;;31.10;13.70;;;;;;;14.15;61.88;100397.61;135897;1276;22537;-67
2024/04/12 05:18:02;;;;;;;47.80;19.80;;;;;;;14.36;61.81;100401.46;135949;1276;22659;-72
2024/04/12 05:21:05;;;;;;;47.60;23.40;;;;;;;14.65;61.54;100399.81;135939;1276;22533;-65
2024/04/12 05:24:09;;;;;;;46.00;22.80;;;;;;;14.94;60.85;100401.27;135913;1276;22525;-69
2024/04/12 05:27:11;;;;;;;39.00;18.30;;;;;;;15.10;60.64;100397.75;135916;1276;24386;-70
2024/04/12 05:30:14;;;;;;;;;;;;;;;15.17;60.44;100394.54;135925;1264;22635;-70
2024/04/12 05:33:16;;;;;;;30.80;12.80;;;;;;;15.30;60.46;100390.13;135937;1276;22638;-69
2024/04/12 05:36:20;;;;;;;;;;;;;;;15.47;60.33;100392.53;135940;1276;22503;-73
2024/04/12 05:39:22;;;;;;;30.00;12.10;;;;;;;15.56;59.70;100392.74;135902;1276;22638;-65
2024/04/12 05:42:25;;;;;;;29.70;12.10;;;;;;;15.67;59.68;100393.89;135915;1276;22536;-65
2024/04/12 05:45:27;;;;;;;32.90;12.40;;;;;;;15.70;59.68;100386.98;135931;1260;24309;-72
2024/04/12 05:48:30;;;;;;;27.90;12.10;;;;;;;15.74;59.02;100383.42;135929;1259;22529;-71
2024/04/12 05:51:32;;;;;;;29.90;12.60;;;;;;;15.71;59.14;100385.21;135928;1276;22528;-63
2024/04/12 05:54:40;;;;;;;31.00;12.60;;;;;;;15.64;59.25;100382.38;135924;1276;22531;-62
2024/04/12 05:57:43;;;;;;;52.90;27.60;;;;;;;15.68;58.67;100383.08;135923;1276;22522;-67
2024/04/12 06:00:47;;;;;;;39.20;20.60;;;;;;;15.62;58.65;100384.64;135905;1276;22551;-64
2024/04/12 06:03:53;;;;;;;34.70;14.20;;;;;;;15.69;59.49;100382.47;135915;1275;25233;-69
2024/04/12 06:06:59;;;;;;;30.50;13.10;;;;;;;15.96;58.89;100383.95;135888;1260;22560;-69
2024/04/12 06:10:01;;;;;;;26.90;10.80;;;;;;;16.21;58.78;100386.53;135938;1276;26552;-73
2024/04/12 06:13:06;;;;;;;28.40;11.00;;;;;;;16.58;58.29;100376.70;135924;1266;22533;-64
2024/04/12 06:16:08;;;;;;;30.30;11.30;;;;;;;16.99;58.02;100369.46;135842;1276;22533;-65
2024/04/12 06:19:12;;;;;;;26.90;11.20;;;;;;;17.36;56.86;100366.93;135935;1260;22740;-71
2024/04/12 06:22:15;;;;;;;26.80;9.90;;;;;;;17.83;55.73;100363.83;135955;1276;22536;-64
2024/04/12 06:25:21;;;;;;;27.50;9.60;;;;;;;18.13;54.71;100360.98;135867;1276;22571;-71
2024/04/12 06:28:23;;;;;;;25.40;9.80;;;;;;;18.28;54.34;100361.34;135926;1260;22532;-64
2024/04/12 06:31:34;;;;;;;27.90;10.00;;;;;;;18.38;54.00;100360.34;135928;1268;22564;-69
2024/04/12 06:34:43;;;;;;;24.50;9.10;;;;;;;18.60;53.85;100358.09;135915;1276;22560;-64
2024/04/12 06:37:47;;;;;;;27.00;9.90;;;;;;;18.98;53.46;100353.64;135920;1276;22535;-65
2024/04/12 06:40:49;;;;;;;26.00;9.10;;;;;;;19.32;51.67;100349.47;135937;1276;22554;-72
2024/04/12 06:43:54;;;;;;;26.90;9.50;;;;;;;19.13;51.79;100348.86;135809;1276;22533;-70
2024/04/12 06:46:58;;;;;;;27.30;9.50;;;;;;;19.49;51.59;100351.02;135944;1276;22569;-64
2024/04/12 06:50:08;;;;;;;24.20;8.60;;;;;;;19.69;50.09;100351.35;135901;1276;22608;-72
2024/04/12 06:53:10;;;;;;;26.40;9.00;;;;;;;19.66;49.64;100343.36;135923;1276;22532;-75
2024/04/12 06:56:15;;;;;;;24.30;8.70;;;;;;;19.88;51.13;100340.17;135907;1276;22528;-69
2024/04/12 06:59:18;;;;;;;26.40;9.10;;;;;;;20.18;50.51;100339.85;135921;1276;22542;-69
2024/04/12 07:02:23;;;;;;;26.40;8.50;;;;;;;20.49;49.46;100344.93;135832;1276;22526;-67
2024/04/12 07:05:27;;;;;;;27.60;9.20;;;;;;;20.93;50.00;100339.14;135823;1276;22998;-71
2024/04/12 07:08:29;;;;;;;27.30;8.40;;;;;;;21.58;49.11;100333.37;135927;1276;22514;-71
2024/04/12 07:11:32;;;;;;;23.10;7.60;;;;;;;22.15;48.28;100336.77;135885;1276;22534;-65
2024/04/12 07:14:34;;;;;;;;;;;;;;;22.25;45.56;100346.83;135958;1276;22516;-63
2024/04/12 07:17:39;;;;;;;23.20;7.90;;;;;;;21.98;45.66;100354.09;135924;1276;22524;-64
2024/04/12 07:20:44;;;;;;;22.00;7.40;;;;;;;22.15;46.18;100364.16;135805;1276;22558;-69
2024/04/12 07:23:48;;;;;;;27.00;7.80;;;;;;;22.31;44.70;100358.90;135890;1261;22525;-70
2024/04/12 07:26:54;;;;;;;23.40;7.90;;;;;;;22.09;44.85;100364.30;135915;1276;24231;-72
2024/04/12 07:29:57;;;;;;;25.50;7.80;;;;;;;21.84;45.38;100364.15;135901;1276;23673;-70
2024/04/12 07:33:00;;;;;;;23.90;7.60;;;;;;;21.93;44.85;100364.61;135916;1276;22546;-71
2024/04/12 07:36:16;;;;;;;23.00;7.60;;;;;;;22.34;44.71;100368.63;135898;1276;22531;-63
2024/04/12 07:39:18;;;;;;;22.40;7.30;;;;;;;22.58;43.52;100370.87;135909;1276;22558;-68
2024/04/12 07:42:22;;;;;;;;;;;;;;;22.55;42.40;100372.58;135967;1276;22538;-66
2024/04/12 07:45:24;;;;;;;18.10;5.30;;;;;;;22.59;41.87;100372.60;135917;1276;22540;-65
2024/04/12 07:48:27;;;;;;;;;;;;;;;22.56;42.13;100371.05;135940;1276;23569;-69
2024/04/12 07:51:31;;;;;;;15.70;4.20;;;;;;;22.85;40.42;100370.73;135941;1276;22564;-72
2024/04/12 07:54:33;;;;;;;25.40;5.60;;;;;;;23.00;40.87;100372.02;135900;1276;22561;-66
2024/04/12 07:57:36;;;;;;;20.00;5.10;;;;;;;23.46;41.00;100371.52;135928;1276;22551;-70
2024/04/12 08:00:45;;;;;;;23.60;5.00;;;;;;;24.10;40.44;100367.44;135940;1276;22525;-70
2024/04/12 08:03:56;;;;;;;16.40;4.60;;;;;;;24.40;39.57;100370.52;135926;1276;22543;-67
2024/04/12 08:06:58;;;;;;;17.40;4.10;;;;;;;24.67;38.93;100362.69;135909;1276;25256;-70
2024/04/12 08:10:27;;;;;;;17.30;4.10;;;;;;;24.55;37.44;100364.70;135950;1276;22530;-69
2024/04/12 08:13:37;;;;;;;14.70;4.10;;;;;;;24.50;37.00;100365.67;135936;1276;22587;-71
2024/04/12 08:16:39;;;;;;;19.20;4.90;;;;;;;23.97;36.47;100367.39;135921;1276;22524;-73
2024/04/12 08:19:45;;;;;;;;;;;;;;;23.63;37.55;100364.77;135954;1276;22535;-72
2024/04/12 08:22:48;;;;;;;14.60;4.10;;;;;;;23.60;36.56;100362.70;135920;1276;22526;-70
2024/04/12 08:25:50;;;;;;;16.70;4.20;;;;;;;23.45;35.94;100362.49;135911;1276;22542;-73
2024/04/12 08:28:53;;;;;;;19.50;4.40;;;;;;;23.56;36.62;100359.39;135935;1276;22536;-71
2024/04/12 08:32:11;;;;;;;16.90;5.20;;;;;;;23.59;36.02;100359.13;135930;1276;22525;-65
2024/04/12 08:35:19;;;;;;;16.60;5.00;;;;;;;23.47;36.90;100358.19;135912;1276;22608;-67
2024/04/12 08:38:21;;;;;;;18.60;4.40;;;;;;;23.65;37.06;100355.68;135851;1276;22537;-69
2024/04/12 08:41:25;;;;;;;17.20;4.40;;;;;;;23.88;36.77;100361.07;135966;1276;22567;-69
2024/04/12 08:44:29;;;;;;;16.30;4.20;;;;;;;24.06;36.12;100358.92;135961;1276;22571;-65
2024/04/12 08:47:32;;;;;;;16.60;4.60;;;;;;;24.03;35.38;100357.88;135933;1276;22532;-66
2024/04/12 08:50:35;;;;;;;17.20;3.90;;;;;;;23.94;34.77;100359.66;135938;1276;25524;-67
2024/04/12 08:53:44;;;;;;;15.10;3.60;;;;;;;23.65;35.05;100358.22;135941;1276;22532;-67
2024/04/12 08:56:47;;;;;;;17.10;4.00;;;;;;;23.49;35.41;100350.55;135935;1276;22536;-69
2024/04/12 08:59:49;;;;;;;13.90;3.40;;;;;;;23.80;36.10;100346.86;135957;1276;22530;-69
2024/04/12 09:02:51;;;;;;;;;;;;;;;23.61;34.23;100345.31;135949;1276;26499;-68
2024/04/12 09:05:53;;;;;;;16.70;4.30;;;;;;;23.62;34.87;100341.48;135904;1259;22563;-69
2024/04/12 09:08:56;;;;;;;;;;;;;;;23.55;34.30;100334.48;135974;1276;22507;-68
2024/04/12 09:12:01;;;;;;;;;;;;;;;23.67;35.02;100330.90;135938;1276;22558;-65
2024/04/12 09:15:12;;;;;;;13.80;3.30;;;;;;;23.62;33.84;100334.38;135923;1276;22532;-65
2024/04/12 09:18:15;;;;;;;17.10;3.60;;;;;;;23.59;33.91;100328.73;135925;1276;22522;-65
2024/04/12 09:21:23;;;;;;;16.10;3.60;;;;;;;23.61;34.16;100323.18;135945;1276;22599;-71
2024/04/12 09:24:31;;;;;;;15.10;3.40;;;;;;;23.76;34.71;100320.91;135935;1260;24210;-66
2024/04/12 09:27:34;;;;;;;16.50;3.60;;;;;;;23.77;33.88;100323.70;135931;1276;22528;-66
2024/04/12 09:34:22;;;;;;;16.00;3.80;;;;;;;23.89;34.54;100317.45;135925;1276;22528;-69
2024/04/12 09:40:41;;;;;;;17.80;3.50;;;;;;;24.36;34.29;100306.52;135907;1276;22556;-71
2024/04/12 09:43:47;;;;;;;13.90;3.80;;;;;;;24.55;33.99;100306.88;135926;1276;22782;-68
2024/04/12 10:37:23;;;;;;;15.40;3.40;;;;;;;24.52;33.53;100303.99;135970;1276;22558;-69
2024/04/12 10:40:22;;;;;;;11.60;2.80;;;;;;;25.44;33.20;100257.47;135953;1276;22524;-66
2024/04/12 10:43:25;;;;;;;11.40;2.80;;;;;;;25.04;33.73;100257.95;135928;1276;22586;-68
2024/04/12 10:46:28;;;;;;;12.80;3.20;;;;;;;25.18;34.60;100243.85;135944;1276;22527;-65
2024/04/12 10:49:30;;;;;;;8.30;2.20;;;;;;;25.54;33.96;100245.55;135927;1276;24237;-67
2024/04/12 10:52:32;;;;;;;13.20;2.40;;;;;;;25.70;33.69;100238.14;135911;1276;25112;-69
2024/04/12 10:55:35;;;;;;;10.00;2.30;;;;;;;25.85;34.20;100231.79;135835;1276;24377;-68
2024/04/12 10:58:43;;;;;;;18.40;2.50;;;;;;;26.01;33.54;100233.73;135896;1276;22575;-69
2024/04/12 11:01:46;;;;;;;15.50;2.90;;;;;;;25.91;33.09;100229.24;135955;1276;22533;-70
2024/04/12 11:05:24;;;;;;;9.70;2.60;;;;;;;25.75;33.42;100226.73;135899;1276;22528;-70
2024/04/12 11:08:27;;;;;;;10.90;2.50;;;;;;;25.61;34.38;100231.57;135804;1276;22531;-72
2024/04/12 11:11:31;;;;;;;11.90;2.80;;;;;;;25.44;34.08;100238.47;135917;1276;22525;-72
2024/04/12 11:14:34;;;;;;;13.50;3.20;;;;;;;25.20;33.52;100230.48;135920;1276;22541;-70
2024/04/12 11:31:14;;;;;;;13.40;3.00;;;;;;;25.72;33.72;100222.88;135899;1259;22559;-71
2024/04/12 11:34:17;;;;;;;13.00;2.90;;;;;;;25.92;33.59;100220.73;135857;1276;25419;-69
2024/04/12 11:37:22;;;;;;;11.80;2.70;;;;;;;26.04;33.34;100212.96;135926;1276;22564;-71
2024/04/12 11:40:25;;;;;;;12.00;2.60;;;;;;;26.33;32.84;100207.64;135913;1276;22654;-71
2024/04/12 11:43:27;;;;;;;11.20;2.80;;;;;;;26.32;33.29;100208.80;135960;1276;22538;-71
2024/04/12 11:46:29;;;;;;;13.60;2.90;;;;;;;26.11;33.36;100202.06;135893;1276;22534;-70
2024/04/12 11:49:41;;;;;;;11.30;3.10;;;;;;;26.21;33.69;100198.66;135951;1276;22570;-69
2024/04/12 11:52:45;;;;;;;14.40;3.50;;;;;;;26.09;33.44;100195.86;135943;1276;22541;-69
2024/04/12 11:55:48;;;;;;;13.50;3.20;;;;;;;26.08;33.68;100190.35;135873;1276;22769;-68
2024/04/12 11:58:51;;;;;;;13.10;3.30;;;;;;;25.93;33.34;100193.36;135966;1276;22555;-71
2024/04/12 12:01:53;;;;;;;13.60;3.20;;;;;;;25.90;33.73;100186.27;135923;1276;22542;-73
2024/04/12 12:04:56;;;;;;;15.30;3.40;;;;;;;26.18;33.64;100180.95;135909;1276;26630;-65
2024/04/12 12:07:59;;;;;;;14.30;3.20;;;;;;;26.05;34.00;100174.21;135924;1276;22597;-64
2024/04/12 12:11:05;;;;;;;12.50;3.00;;;;;;;25.79;34.31;100176.48;135960;1276;22533;-71
2024/04/12 12:14:07;;;;;;;9.30;2.90;;;;;;;25.55;34.17;100171.66;135736;1276;22537;-69
2024/04/12 12:17:10;;;;;;;12.00;3.00;;;;;;;25.72;34.18;100163.63;135899;1276;22552;-66
2024/04/12 12:20:18;;;;;;;16.10;3.60;;;;;;;25.69;34.50;100158.89;135934;1276;22521;-72
2024/04/12 12:23:20;;;;;;;15.50;3.80;;;;;;;25.60;34.18;100159.53;135933;1276;22535;-65
2024/04/12 12:26:22;;;;;;;14.90;3.30;;;;;;;25.51;35.05;100153.97;135937;1276;24282;-66
2024/04/12 12:29:25;;;;;;;14.20;3.60;;;;;;;25.35;35.03;100147.48;135919;1276;23214;-69
2024/04/12 12:32:31;;;;;;;13.90;3.30;;;;;;;25.47;34.60;100138.10;135941;1276;22538;-69
2024/04/12 12:35:35;;;;;;;12.90;3.10;;;;;;;26.08;34.84;100131.87;135927;1276;22528;-68
2024/04/12 12:38:40;;;;;;;12.80;3.00;;;;;;;26.27;33.96;100134.63;135846;1276;22527;-63
2024/04/12 12:41:45;;;;;;;11.80;3.20;;;;;;;26.35;34.04;100130.42;135957;1276;22615;-69
2024/04/12 12:44:48;;;;;;;16.60;3.30;;;;;;;26.43;33.67;100127.34;135931;1255;22527;-64
2024/04/12 12:47:50;;;;;;;14.40;3.10;;;;;;;26.50;33.69;100128.54;135924;1276;22564;-71
2024/04/12 12:50:52;;;;;;;12.60;2.70;;;;;;;26.98;33.18;100134.17;135940;1276;22605;-70
2024/04/12 12:53:55;;;;;;;9.40;2.80;;;;;;;27.15;33.00;100132.13;135909;1276;23387;-64
2024/04/12 12:56:57;;;;;;;14.00;2.70;;;;;;;27.39;33.16;100118.04;135918;1276;22528;-64
2024/04/12 13:00:05;;;;;;;14.30;3.20;;;;;;;27.45;32.52;100121.50;135895;1276;24272;-64
2024/04/12 13:03:11;;;;;;;10.60;2.60;;;;;;;27.08;33.13;100126.84;135922;1276;22524;-69
2024/04/12 13:06:21;;;;;;;14.90;3.20;;;;;;;26.61;33.30;100120.92;135794;1276;22614;-71
2024/04/12 13:09:23;;;;;;;10.20;3.00;;;;;;;26.43;33.01;100115.47;135944;1276;22544;-73
2024/04/12 13:12:28;;;;;;;11.50;2.90;;;;;;;26.07;33.31;100113.79;135934;1276;22537;-70
2024/04/12 13:15:30;;;;;;;13.80;3.10;;;;;;;26.08;34.10;100109.52;135753;1276;24234;-64
2024/04/12 13:18:33;;;;;;;14.10;3.30;;;;;;;26.40;34.05;100117.22;135934;1276;22564;-65
2024/04/12 13:21:35;;;;;;;14.70;3.30;;;;;;;26.45;34.00;100110.46;135935;1259;22538;-65
2024/04/12 13:24:37;;;;;;;10.10;2.80;;;;;;;26.64;34.05;100109.48;135787;1267;22609;-70
2024/04/12 13:27:40;;;;;;;11.60;3.10;;;;;;;26.66;33.63;100100.66;135955;1276;22578;-66
2024/04/12 13:30:42;;;;;;;11.70;3.00;;;;;;;26.75;34.08;100088.08;135910;1276;22524;-66
2024/04/12 13:33:45;;;;;;;13.60;3.70;;;;;;;26.82;34.07;100081.16;135947;1276;22543;-63
2024/04/12 13:36:52;;;;;;;9.80;2.90;;;;;;;27.02;34.51;100077.59;135838;1259;22535;-70
2024/04/12 13:39:54;;;;;;;14.30;3.40;;;;;;;27.51;34.47;100069.23;135870;1276;22798;-70
2024/04/12 13:42:59;;;;;;;15.70;3.40;;;;;;;27.56;33.99;100066.51;135944;1276;23139;-69
2024/04/12 13:52:42;;;;;;;11.70;3.10;;;;;;;26.77;34.28;100069.15;135946;1276;22649;-65
2024/04/12 13:55:46;;;;;;;17.30;2.80;;;;;;;27.08;33.96;100065.05;135793;1276;22583;-65
2024/04/12 13:58:52;;;;;;;8.60;3.00;;;;;;;27.50;33.35;100051.21;135924;1276;24384;-71
2024/04/12 14:01:54;;;;;;;14.70;3.30;;;;;;;27.66;33.07;100051.20;135790;1259;22646;-73
2024/04/12 14:04:59;;;;;;;13.70;3.20;;;;;;;27.74;33.53;100055.64;135941;1276;22528;-70
2024/04/12 14:08:07;;;;;;;14.50;2.90;;;;;;;27.55;33.02;100046.55;135886;1276;22612;-71
2024/04/12 14:11:10;;;;;;;11.50;3.10;;;;;;;27.59;33.43;100042.92;135913;1276;23818;-65
2024/04/12 14:14:12;;;;;;;12.80;3.10;;;;;;;27.62;33.22;100042.12;135925;1276;22527;-64
2024/04/12 14:17:15;;;;;;;11.70;3.10;;;;;;;27.59;33.05;100041.57;135881;1276;22989;-67
2024/04/12 14:20:20;;;;;;;14.80;2.90;;;;;;;27.32;33.84;100046.96;135832;1276;22573;-64
2024/04/12 14:23:24;;;;;;;14.50;2.80;;;;;;;27.18;33.42;100043.89;135871;1276;22520;-68
2024/04/12 14:26:26;;;;;;;16.70;3.50;;;;;;;26.86;33.85;100037.03;135889;1276;22639;-64
2024/04/12 14:29:28;;;;;;;10.10;2.80;;;;;;;26.53;34.55;100033.17;135927;1276;22684;-66
2024/04/12 14:32:31;;;;;;;10.10;2.80;;;;;;;26.34;34.51;100027.42;135916;1276;22992;-68
2024/04/12 14:35:38;;;;;;;11.40;2.90;;;;;;;26.13;35.19;100021.41;135886;1276;22532;-64
2024/04/12 14:38:42;;;;;;;12.70;2.90;;;;;;;26.08;34.90;100016.14;135930;1276;22528;-64
2024/04/12 14:41:45;;;;;;;17.80;3.50;;;;;;;26.03;35.14;100016.03;135831;1276;22554;-66
2024/04/12 14:44:47;;;;;;;16.50;4.00;;;;;;;26.09;35.50;100014.61;135954;1276;22667;-69
2024/04/12 14:47:49;;;;;;;11.70;3.00;;;;;;;26.65;35.04;100013.45;135939;1276;25984;-64
2024/04/12 14:50:53;;;;;;;11.70;3.00;;;;;;;26.65;34.92;100013.10;135909;1276;22575;-66
2024/04/12 14:53:55;;;;;;;13.00;3.40;;;;;;;26.67;34.90;100010.67;135878;1276;22564;-64
2024/04/12 14:56:57;;;;;;;11.70;3.10;;;;;;;26.55;35.09;100007.38;135890;1276;25263;-68
2024/04/12 15:00:00;;;;;;;14.40;3.20;;;;;;;26.59;35.17;100007.23;135925;1276;22535;-63
2024/04/12 15:49:48;;;;;;;10.40;3.10;;;;;;;33.65;28.45;99960.86;135910;1276;22532;-70
2024/04/12 16:12:55;;;;;;;9.80;3.00;;;;;;;35.74;26.53;99943.01;135731;1276;22561;-67
2024/04/12 16:15:58;;;;;;;10.70;2.80;;;;;;;35.02;26.95;99942.80;135894;1276;22549;-68
2024/04/12 16:19:00;;;;;;;14.50;3.20;;;;;;;34.40;26.95;99945.42;135917;1276;22531;-69
2024/04/12 16:22:03;;;;;;;12.80;2.70;;;;;;;33.68;27.06;99937.16;135928;1276;22553;-69